Ontonagon, Michigan
Current Conditions -  °F | °C
As of 4:53 AM on Saturday 25 Oct 2014 (Local Time) from KCMX Reporting Station
Clear Clear  
Wind Chill: 53°   Ceiling: Unl
Heat Index: 53°   Visibility: 10mi
Dew Point: 38°   Wind: 17mph
Humidity: 57%   Direction: 280°W
Pressure: 29.67"   Gusts: 23mph
Location:  46.87°N, 89.31°W
Report Text: KCMX 250853Z AUTO 28015G20KT 10SM CLR 12/03 A2967 RMK AO2 SLP048 T01170033 51011
Loading
Personal Weather Stations






























Interactive Weather Map
Tropical Storm Tracking
New forecast layout! Learn more

10-Day Weather Forecast

Advertisements
Track Severe Weather on mobile